首页
METAR-TAF:

METAR-TAF

机场 :

Winslow, 亞利桑那州, 美国

纬度: 35-01-41N, 经度: 110-43-15W, 海拔: 1505米

当前天气观测

该预报发布于19分钟前的18:56 UTC
风速22节,风向西南,有时为32节阵风
温度 21°C
湿度 18%
气压 1011 hPa
能見度: 16.1公里
天空无云

METAR: KINW 021856Z AUTO 22022G32KT 10SM CLR 21/M04 A2986 RMK AO2 PK WND 22032/1849 SLP060 T02111044

时间: 12:15 (19:15 UTC)

预报

该预报发布于1小时和48分钟前的17:27 UTC
预报有效从02日的 18点(UTC)到 03日的 18点(UTC)
风速25节,风向西南,有时为35节阵风
能見度: 10公里
天空无云
从 03日的 0300点(UTC)
风速14节,风向西转西南
能見度: 10公里
天空无云
从 03日的 0600点(UTC)
风速7节,风向西转西南
能見度: 10公里
天空无云

TAF: KINW 021727Z 0218/0318 22025G35KT P6SM SKC FM030300 24014KT P6SM SKC FM030600 25007KT P6SM SKC

超过4000个机场的气象观测和天气预报(METAR&TAF报告)。

可查询的气象台以黄色和红色小点在地图上表示。

将鼠标移到小点上方,可查看气象台名称。

然后点击查看天气观测和预报。

如需切换地图:点击带黑十字的绿色按钮放大地图;点击带横线的绿色按钮缩小地图;或者点击绿色箭头查看邻近地区的地图。


METAR-TAF: